createdAt,value
2024-01-30T00:00:20.340Z,3.26
2024-01-30T00:03:27.922Z,3.23
2024-01-30T00:06:15.034Z,3.21
2024-01-30T00:09:02.061Z,3.18
2024-01-30T00:11:48.837Z,3.17
2024-01-30T00:14:35.751Z,3.09
2024-01-30T00:17:22.920Z,3.05
2024-01-30T00:20:11.205Z,3.02
2024-01-30T00:22:59.114Z,3.03
2024-01-30T00:25:45.900Z,3.00
2024-01-30T00:28:33.096Z,3.01
2024-01-30T00:31:20.007Z,2.99
2024-01-30T00:34:07.156Z,2.98
2024-01-30T00:36:54.266Z,2.99
2024-01-30T00:39:41.363Z,2.98
2024-01-30T00:42:28.384Z,2.97
2024-01-30T00:45:16.293Z,2.97
2024-01-30T00:48:03.538Z,2.91
2024-01-30T00:50:51.004Z,2.87
2024-01-30T00:53:37.611Z,2.84
2024-01-30T00:56:25.315Z,2.83
2024-01-30T00:59:12.675Z,2.84
2024-01-30T01:01:59.722Z,2.80
2024-01-30T01:04:46.845Z,2.80
2024-01-30T01:07:33.763Z,2.83
2024-01-30T01:10:21.059Z,2.87
2024-01-30T01:13:07.491Z,2.95
2024-01-30T01:15:54.398Z,2.99
2024-01-30T01:18:41.319Z,3.03
2024-01-30T01:21:28.414Z,3.05
2024-01-30T01:24:15.259Z,3.05
2024-01-30T01:27:01.919Z,3.02
2024-01-30T01:29:48.912Z,2.96
2024-01-30T01:32:36.021Z,2.91
2024-01-30T01:35:26.003Z,2.92
2024-01-30T01:38:12.982Z,2.87
2024-01-30T01:40:59.773Z,2.82
2024-01-30T01:43:46.908Z,2.79
2024-01-30T01:46:34.995Z,2.77
2024-01-30T01:49:23.825Z,2.73
2024-01-30T01:52:11.174Z,2.72
2024-01-30T01:54:58.159Z,2.66
2024-01-30T01:57:45.612Z,2.59
2024-01-30T02:00:32.740Z,2.58
2024-01-30T02:03:22.950Z,2.59
2024-01-30T02:06:10.630Z,2.57
2024-01-30T02:08:57.203Z,2.54
2024-01-30T02:11:46.314Z,2.55
2024-01-30T02:14:33.290Z,2.60
2024-01-30T02:17:20.273Z,2.63
2024-01-30T02:20:07.544Z,2.65
2024-01-30T02:22:55.749Z,2.67
2024-01-30T02:25:45.595Z,2.68
2024-01-30T02:28:32.439Z,2.64
2024-01-30T02:31:19.357Z,2.62
2024-01-30T02:34:06.467Z,2.56
2024-01-30T02:36:53.755Z,2.53
2024-01-30T02:39:40.423Z,2.50
2024-01-30T02:42:27.767Z,2.47
2024-01-30T02:45:14.870Z,2.45
2024-01-30T02:48:01.781Z,2.44
2024-01-30T02:50:48.898Z,2.45
2024-01-30T02:53:36.033Z,2.43
2024-01-30T02:56:23.093Z,2.44
2024-01-30T02:59:10.073Z,2.49
2024-01-30T03:01:57.241Z,2.50
2024-01-30T03:04:44.514Z,2.50
2024-01-30T03:07:31.345Z,2.55
2024-01-30T03:10:18.439Z,2.54
2024-01-30T03:13:05.552Z,2.54
2024-01-30T03:15:52.459Z,2.55
2024-01-30T03:18:39.707Z,2.54
2024-01-30T03:21:26.789Z,2.54
2024-01-30T03:24:13.348Z,2.54
2024-01-30T03:27:00.334Z,2.52
2024-01-30T03:29:47.353Z,2.49
2024-01-30T03:32:34.082Z,2.45
2024-01-30T03:35:21.092Z,2.38
2024-01-30T03:38:07.986Z,2.32
2024-01-30T03:40:54.970Z,2.29
2024-01-30T03:43:42.074Z,2.26
2024-01-30T03:46:28.690Z,2.26
2024-01-30T03:49:16.131Z,2.31
2024-01-30T03:52:03.330Z,2.36
2024-01-30T03:54:50.227Z,2.39
2024-01-30T03:57:37.377Z,2.42
2024-01-30T04:00:24.254Z,2.44
2024-01-30T04:03:10.842Z,2.43
2024-01-30T04:05:57.948Z,2.40
2024-01-30T04:08:45.020Z,2.34
2024-01-30T04:11:31.824Z,2.31
2024-01-30T04:14:18.795Z,2.30
2024-01-30T04:17:05.287Z,2.29
2024-01-30T04:19:52.142Z,2.28
2024-01-30T04:22:38.853Z,2.27
2024-01-30T04:25:25.717Z,2.25
2024-01-30T04:28:15.258Z,2.23
2024-01-30T04:31:02.215Z,2.20
2024-01-30T04:33:49.696Z,2.19
2024-01-30T04:36:36.882Z,2.17
2024-01-30T04:39:23.782Z,2.19
2024-01-30T04:42:10.858Z,2.23
2024-01-30T04:44:57.667Z,2.26
2024-01-30T04:47:47.601Z,2.31
2024-01-30T04:50:34.487Z,2.36
2024-01-30T04:53:21.507Z,2.36
2024-01-30T04:56:08.430Z,2.33
2024-01-30T04:58:55.292Z,2.28
2024-01-30T05:01:42.119Z,2.26
2024-01-30T05:04:29.173Z,2.24
2024-01-30T05:07:16.531Z,2.22
2024-01-30T05:10:06.888Z,2.19
2024-01-30T05:12:53.988Z,2.21
2024-01-30T05:15:40.921Z,2.20
2024-01-30T05:18:27.409Z,2.17
2024-01-30T05:21:14.818Z,2.16
2024-01-30T05:24:01.497Z,2.18
2024-01-30T05:26:49.382Z,2.19
2024-01-30T05:29:36.246Z,2.18
2024-01-30T05:32:23.039Z,2.17
2024-01-30T05:35:10.223Z,2.15
2024-01-30T05:37:57.127Z,2.13
2024-01-30T05:40:43.979Z,2.13
2024-01-30T05:43:30.782Z,2.13
2024-01-30T05:46:17.690Z,2.19
2024-01-30T05:49:06.368Z,2.28
2024-01-30T05:51:53.211Z,2.34
2024-01-30T05:54:40.151Z,2.37
2024-01-30T05:57:27.304Z,2.39
2024-01-30T06:00:14.614Z,2.43
2024-01-30T06:03:01.875Z,2.43
2024-01-30T06:05:48.622Z,2.43
2024-01-30T06:08:35.444Z,2.43
2024-01-30T06:11:22.133Z,2.40
2024-01-30T06:14:08.946Z,2.35
2024-01-30T06:16:56.200Z,2.28
2024-01-30T06:19:43.074Z,2.24
2024-01-30T06:22:29.944Z,2.20
2024-01-30T06:25:18.050Z,2.22
2024-01-30T06:28:04.931Z,2.19
2024-01-30T06:30:51.641Z,2.17
2024-01-30T06:33:38.949Z,2.19
2024-01-30T06:36:26.010Z,2.21
2024-01-30T06:39:12.633Z,2.13
2024-01-30T06:41:59.625Z,2.12
2024-01-30T06:44:46.260Z,2.16
2024-01-30T06:47:33.254Z,2.21
2024-01-30T06:50:20.353Z,2.25
2024-01-30T06:53:07.253Z,2.28
2024-01-30T06:55:54.013Z,2.31
2024-01-30T06:58:41.127Z,2.34
2024-01-30T07:01:31.587Z,2.34
2024-01-30T07:04:19.932Z,2.31
2024-01-30T07:07:07.333Z,2.29
2024-01-30T07:09:58.210Z,2.33
2024-01-30T07:12:45.203Z,2.37
2024-01-30T07:15:32.468Z,2.43
2024-01-30T07:18:19.644Z,2.46
2024-01-30T07:21:06.522Z,2.45
2024-01-30T07:23:53.232Z,2.47
2024-01-30T07:26:40.005Z,2.46
2024-01-30T07:29:26.968Z,2.47
2024-01-30T07:32:13.895Z,2.49
2024-01-30T07:35:07.771Z,2.53
2024-01-30T07:37:56.190Z,2.57
2024-01-30T07:40:42.869Z,2.63
2024-01-30T07:43:29.746Z,2.73
2024-01-30T07:46:16.716Z,2.83
2024-01-30T07:49:03.601Z,2.90
2024-01-30T07:51:50.350Z,2.95
2024-01-30T07:54:40.305Z,3.03
2024-01-30T07:57:27.298Z,3.13
2024-01-30T08:00:14.992Z,3.21
2024-01-30T08:03:01.828Z,3.26
2024-01-30T08:05:48.713Z,3.31
2024-01-30T08:08:35.318Z,3.36
2024-01-30T08:11:27.407Z,3.39
2024-01-30T08:14:15.071Z,3.40
2024-01-30T08:17:02.176Z,3.40
2024-01-30T08:19:49.116Z,3.43
2024-01-30T08:22:35.890Z,3.49
2024-01-30T08:25:23.111Z,3.50
2024-01-30T08:28:09.934Z,3.54
2024-01-30T08:30:56.577Z,3.57
2024-01-30T08:33:44.259Z,3.64
2024-01-30T08:36:31.700Z,3.68
2024-01-30T08:39:18.315Z,3.71
2024-01-30T08:42:05.193Z,3.78
2024-01-30T08:44:53.629Z,3.84
2024-01-30T08:47:41.862Z,3.90
2024-01-30T08:50:29.411Z,3.96
2024-01-30T08:53:16.240Z,3.98
2024-01-30T08:56:04.474Z,4.06
2024-01-30T08:58:51.222Z,4.13
2024-01-30T09:01:38.482Z,4.23
2024-01-30T09:04:26.611Z,4.31
2024-01-30T09:07:14.876Z,4.35
2024-01-30T09:10:01.932Z,4.43
2024-01-30T09:12:49.244Z,4.49
2024-01-30T09:15:36.883Z,4.59
2024-01-30T09:18:24.088Z,4.62
2024-01-30T09:21:11.232Z,4.68
2024-01-30T09:24:05.247Z,4.75
2024-01-30T09:26:51.734Z,4.81
2024-01-30T09:29:38.476Z,4.87
2024-01-30T09:32:25.298Z,4.93
2024-01-30T09:35:12.193Z,4.97
2024-01-30T09:37:59.045Z,5.02
2024-01-30T09:40:46.744Z,5.07
2024-01-30T09:43:36.030Z,5.12
2024-01-30T09:46:24.679Z,5.19
2024-01-30T09:49:11.525Z,5.28
2024-01-30T09:51:58.024Z,5.37
2024-01-30T09:54:44.816Z,5.43
2024-01-30T09:57:31.595Z,5.56
2024-01-30T10:00:19.014Z,5.68
2024-01-30T10:03:06.187Z,5.78
2024-01-30T10:05:55.765Z,5.87
2024-01-30T10:08:43.801Z,5.98
2024-01-30T10:11:30.474Z,6.02
2024-01-30T10:14:17.313Z,6.07
2024-01-30T10:17:09.198Z,6.09
2024-01-30T10:19:59.362Z,6.12
2024-01-30T10:22:47.386Z,6.27
2024-01-30T10:25:34.201Z,6.39
2024-01-30T10:28:22.889Z,6.43
2024-01-30T10:31:10.172Z,6.44
2024-01-30T10:34:08.467Z,6.46
2024-01-30T10:37:19.088Z,6.49
2024-01-30T10:40:07.427Z,6.49
2024-01-30T10:42:56.660Z,6.53
2024-01-30T10:45:46.173Z,6.57
2024-01-30T10:48:33.855Z,6.61
2024-01-30T10:51:22.271Z,6.67
2024-01-30T10:54:09.526Z,6.74
2024-01-30T10:56:56.373Z,6.77
2024-01-30T10:59:44.337Z,6.83
2024-01-30T11:02:31.583Z,6.93
2024-01-30T11:05:28.709Z,6.92
2024-01-30T11:08:24.875Z,6.92
2024-01-30T11:11:12.465Z,6.99
2024-01-30T11:14:03.035Z,7.00
2024-01-30T11:16:50.400Z,7.03
2024-01-30T11:19:37.791Z,7.05
2024-01-30T11:22:24.838Z,7.10
2024-01-30T11:25:15.769Z,7.16
2024-01-30T11:28:03.198Z,7.18
2024-01-30T11:30:52.020Z,7.20
2024-01-30T11:33:39.297Z,7.25
2024-01-30T11:36:28.048Z,7.33
2024-01-30T11:39:16.613Z,7.42
2024-01-30T11:42:06.123Z,7.53
2024-01-30T11:44:53.063Z,7.57
2024-01-30T11:47:44.250Z,7.61
2024-01-30T11:50:34.607Z,7.67
2024-01-30T11:53:21.148Z,7.72
2024-01-30T11:56:07.738Z,7.76
2024-01-30T11:58:54.985Z,7.80
2024-01-30T12:01:42.020Z,7.84
2024-01-30T12:04:30.691Z,7.84
2024-01-30T12:07:17.829Z,7.83
2024-01-30T12:10:06.799Z,7.86
2024-01-30T12:12:55.278Z,7.94
2024-01-30T12:15:42.005Z,7.99
2024-01-30T12:18:28.818Z,8.00
2024-01-30T12:21:19.352Z,8.02
2024-01-30T12:24:08.586Z,8.04
2024-01-30T12:26:58.902Z,8.06
2024-01-30T12:29:46.087Z,8.08
2024-01-30T12:32:32.874Z,8.11
2024-01-30T12:35:21.181Z,8.10
2024-01-30T12:38:08.378Z,8.14
2024-01-30T12:40:57.938Z,8.18
2024-01-30T12:43:45.358Z,8.18
2024-01-30T12:46:32.543Z,8.13
2024-01-30T12:49:19.601Z,8.10
2024-01-30T12:52:06.542Z,8.13
2024-01-30T12:54:53.955Z,8.18
2024-01-30T12:57:40.831Z,8.23
2024-01-30T13:00:28.114Z,8.25
2024-01-30T13:03:15.023Z,8.26
2024-01-30T13:06:02.139Z,8.26
2024-01-30T13:08:48.917Z,8.24
2024-01-30T13:11:36.204Z,8.24
2024-01-30T13:14:23.275Z,8.29
2024-01-30T13:17:10.060Z,8.33
2024-01-30T13:20:02.090Z,8.32
2024-01-30T13:22:51.649Z,8.35
2024-01-30T13:25:38.640Z,8.38
2024-01-30T13:28:26.980Z,8.39
2024-01-30T13:31:15.852Z,8.32
2024-01-30T13:34:05.096Z,8.30
2024-01-30T13:36:54.006Z,8.29
2024-01-30T13:39:40.832Z,8.30
2024-01-30T13:42:27.341Z,8.30
2024-01-30T13:45:14.160Z,8.30
2024-01-30T13:48:01.075Z,8.28
2024-01-30T13:50:48.730Z,8.26
2024-01-30T13:53:35.707Z,8.19
2024-01-30T13:56:22.707Z,8.17
2024-01-30T13:59:09.612Z,8.15
2024-01-30T14:01:56.713Z,8.16
2024-01-30T14:04:44.937Z,8.13
2024-01-30T14:07:31.764Z,8.13
2024-01-30T14:10:18.762Z,8.11
2024-01-30T14:13:05.492Z,8.07
2024-01-30T14:15:53.647Z,8.06
2024-01-30T14:18:41.710Z,8.07
2024-01-30T14:21:28.678Z,8.03
2024-01-30T14:24:15.276Z,8.01
2024-01-30T14:27:01.807Z,7.99
2024-01-30T14:29:48.732Z,7.92
2024-01-30T14:32:36.260Z,7.92
2024-01-30T14:35:23.710Z,7.87
2024-01-30T14:38:10.996Z,7.80
2024-01-30T14:40:57.564Z,7.77
2024-01-30T14:43:44.085Z,7.72
2024-01-30T14:46:31.263Z,7.71
2024-01-30T14:49:18.202Z,7.66
2024-01-30T14:52:05.730Z,7.64
2024-01-30T14:54:52.661Z,7.60
2024-01-30T14:57:39.915Z,7.57
2024-01-30T15:00:27.095Z,7.52
2024-01-30T15:03:13.813Z,7.49
2024-01-30T15:06:00.852Z,7.48
2024-01-30T15:08:47.755Z,7.41
2024-01-30T15:11:36.744Z,7.34
2024-01-30T15:14:25.023Z,7.30
2024-01-30T15:17:11.906Z,7.23
2024-01-30T15:19:59.894Z,7.18
2024-01-30T15:22:47.195Z,7.12
2024-01-30T15:25:34.492Z,7.07
2024-01-30T15:28:35.066Z,7.02
2024-01-30T15:31:22.246Z,6.96
2024-01-30T15:34:08.873Z,6.89
2024-01-30T15:36:56.108Z,6.82
2024-01-30T15:39:42.864Z,6.76
2024-01-30T15:42:30.048Z,6.71
2024-01-30T15:45:16.992Z,6.63
2024-01-30T15:48:04.010Z,6.56
2024-01-30T15:50:50.867Z,6.49
2024-01-30T15:53:37.601Z,6.42
2024-01-30T15:56:24.540Z,6.35
2024-01-30T15:59:11.325Z,6.28
2024-01-30T16:01:58.303Z,6.23
2024-01-30T16:04:45.227Z,6.20
2024-01-30T16:07:34.111Z,6.16
2024-01-30T16:10:21.054Z,6.09
2024-01-30T16:13:07.991Z,6.03
2024-01-30T16:15:55.105Z,5.99
2024-01-30T16:18:41.801Z,5.94
2024-01-30T16:21:28.861Z,5.89
2024-01-30T16:24:15.599Z,5.87
2024-01-30T16:27:02.838Z,5.82
2024-01-30T16:29:49.744Z,5.77
2024-01-30T16:32:36.713Z,5.73
2024-01-30T16:35:43.966Z,5.68
2024-01-30T16:38:30.917Z,5.63
2024-01-30T16:41:17.721Z,5.59
2024-01-30T16:44:05.716Z,5.54
2024-01-30T16:46:52.917Z,5.48
2024-01-30T16:49:40.141Z,5.44
2024-01-30T16:52:27.246Z,5.39
2024-01-30T16:55:14.811Z,5.34
2024-01-30T16:58:01.906Z,5.28
2024-01-30T17:00:49.149Z,5.22
2024-01-30T17:03:35.962Z,5.17
2024-01-30T17:06:23.146Z,5.12
2024-01-30T17:09:12.195Z,5.06
2024-01-30T17:12:01.372Z,5.01
2024-01-30T17:14:50.694Z,4.99
2024-01-30T17:17:37.700Z,4.93
2024-01-30T17:20:24.631Z,4.91
2024-01-30T17:23:12.056Z,4.89
2024-01-30T17:25:58.629Z,4.86
2024-01-30T17:28:46.802Z,4.83
2024-01-30T17:31:33.747Z,4.79
2024-01-30T17:34:20.898Z,4.76
2024-01-30T17:37:07.974Z,4.73
2024-01-30T17:39:54.684Z,4.71
2024-01-30T17:42:41.950Z,4.69
2024-01-30T17:45:28.960Z,4.65
2024-01-30T17:48:16.183Z,4.64
2024-01-30T17:51:04.288Z,4.65
2024-01-30T17:53:52.226Z,4.65
2024-01-30T17:56:39.285Z,4.66
2024-01-30T17:59:25.962Z,4.65
2024-01-30T18:02:13.583Z,4.65
2024-01-30T18:05:01.209Z,4.64
2024-01-30T18:07:48.315Z,4.58
2024-01-30T18:10:36.924Z,4.50
2024-01-30T18:13:23.596Z,4.46
2024-01-30T18:16:10.724Z,4.42
2024-01-30T18:18:57.949Z,4.41
2024-01-30T18:21:45.086Z,4.38
2024-01-30T18:24:31.900Z,4.35
2024-01-30T18:27:18.539Z,4.33
2024-01-30T18:30:06.112Z,4.30
2024-01-30T18:32:53.312Z,4.26
2024-01-30T18:35:40.264Z,4.21
2024-01-30T18:38:27.294Z,4.17
2024-01-30T18:41:14.426Z,4.16
2024-01-30T18:44:03.674Z,4.15
2024-01-30T18:46:51.042Z,4.13
2024-01-30T18:49:38.322Z,4.11
2024-01-30T18:52:25.797Z,4.13
2024-01-30T18:55:13.018Z,4.13
2024-01-30T18:58:00.309Z,4.13
2024-01-30T19:00:50.105Z,4.15
2024-01-30T19:03:37.113Z,4.19
2024-01-30T19:06:24.431Z,4.21
2024-01-30T19:09:12.033Z,4.21
2024-01-30T19:11:59.635Z,4.22
2024-01-30T19:14:46.502Z,4.21
2024-01-30T19:17:34.061Z,4.21
2024-01-30T19:20:23.886Z,4.22
2024-01-30T19:23:10.596Z,4.20
2024-01-30T19:25:57.756Z,4.19
2024-01-30T19:28:45.350Z,4.17
2024-01-30T19:31:32.407Z,4.15
2024-01-30T19:34:19.039Z,4.11
2024-01-30T19:37:05.753Z,4.09
2024-01-30T19:39:53.562Z,4.06
2024-01-30T19:42:40.405Z,4.06
2024-01-30T19:45:27.236Z,4.07
2024-01-30T19:48:14.266Z,4.06
2024-01-30T19:51:01.624Z,4.05
2024-01-30T19:53:48.458Z,4.06
2024-01-30T19:56:35.111Z,4.05
2024-01-30T19:59:22.117Z,4.04
2024-01-30T20:02:09.225Z,4.04
2024-01-30T20:04:55.809Z,4.01
2024-01-30T20:07:43.489Z,3.99
2024-01-30T20:10:30.674Z,3.96
2024-01-30T20:13:17.418Z,3.93
2024-01-30T20:16:05.082Z,3.89
2024-01-30T20:18:51.982Z,3.88
2024-01-30T20:21:38.867Z,3.87
2024-01-30T20:24:25.895Z,3.85
2024-01-30T20:27:12.960Z,3.85
2024-01-30T20:29:59.822Z,3.85
2024-01-30T20:32:46.718Z,3.84
2024-01-30T20:35:34.031Z,3.81
2024-01-30T20:38:21.117Z,3.82
2024-01-30T20:41:09.952Z,3.82
2024-01-30T20:43:56.594Z,3.81
2024-01-30T20:46:43.508Z,3.82
2024-01-30T20:49:30.348Z,3.81
2024-01-30T20:52:17.589Z,3.81
2024-01-30T20:55:05.123Z,3.80
2024-01-30T20:57:52.125Z,3.80
2024-01-30T21:00:41.573Z,3.81
2024-01-30T21:03:30.375Z,3.80
2024-01-30T21:06:17.257Z,3.79
2024-01-30T21:09:04.265Z,3.78
2024-01-30T21:11:50.655Z,3.79
2024-01-30T21:14:37.513Z,3.77
2024-01-30T21:17:24.304Z,3.75
2024-01-30T21:20:12.156Z,3.73
2024-01-30T21:22:59.234Z,3.73
2024-01-30T21:25:46.391Z,3.75
2024-01-30T21:28:33.495Z,3.74
2024-01-30T21:31:20.566Z,3.76
2024-01-30T21:34:07.365Z,3.75
2024-01-30T21:36:54.185Z,3.75
2024-01-30T21:39:41.242Z,3.76
2024-01-30T21:42:28.238Z,3.74
2024-01-30T21:45:15.214Z,3.73
2024-01-30T21:48:02.142Z,3.72
2024-01-30T21:50:49.386Z,3.73
2024-01-30T21:53:36.020Z,3.72
2024-01-30T21:56:22.573Z,3.71
2024-01-30T21:59:09.740Z,3.70
2024-01-30T22:01:56.735Z,3.68
2024-01-30T22:04:47.453Z,3.67
2024-01-30T22:07:35.649Z,3.65
2024-01-30T22:10:22.322Z,3.64
2024-01-30T22:13:09.585Z,3.63
2024-01-30T22:15:56.407Z,3.64
2024-01-30T22:18:44.094Z,3.67
2024-01-30T22:21:31.248Z,3.66
2024-01-30T22:24:18.329Z,3.68
2024-01-30T22:27:06.625Z,3.68
2024-01-30T22:29:53.209Z,3.66
2024-01-30T22:32:39.913Z,3.65
2024-01-30T22:35:26.798Z,3.64
2024-01-30T22:38:13.556Z,3.62
2024-01-30T22:41:00.840Z,3.61
2024-01-30T22:43:47.627Z,3.63
2024-01-30T22:46:34.694Z,3.63
2024-01-30T22:49:21.390Z,3.65
2024-01-30T22:52:07.937Z,3.64
2024-01-30T22:54:55.414Z,3.61
2024-01-30T22:57:45.760Z,3.60
2024-01-30T23:00:32.874Z,3.59
2024-01-30T23:03:20.148Z,3.61
2024-01-30T23:06:07.585Z,3.61
2024-01-30T23:08:54.619Z,3.60
2024-01-30T23:11:42.234Z,3.59
2024-01-30T23:14:28.997Z,3.55
2024-01-30T23:17:15.769Z,3.51
2024-01-30T23:20:03.682Z,3.49
2024-01-30T23:22:50.208Z,3.49
2024-01-30T23:25:36.931Z,3.48
2024-01-30T23:28:23.946Z,3.47
2024-01-30T23:31:10.891Z,3.49
2024-01-30T23:33:57.619Z,3.50
2024-01-30T23:36:44.759Z,3.48
2024-01-30T23:39:35.473Z,3.46
2024-01-30T23:42:22.342Z,3.45
2024-01-30T23:45:09.560Z,3.42
2024-01-30T23:47:56.586Z,3.38
2024-01-30T23:50:43.209Z,3.35
2024-01-30T23:53:30.092Z,3.34
2024-01-30T23:56:17.010Z,3.31
2024-01-30T23:59:04.168Z,3.32
